Time;durP1;ratioP1;P1;durP2;ratioP2;P2;SDS_P1;SDS_P2;PMS_P1;PMS_P2;Temp;Humidity;BMP_temperature;BMP_pressure;BME280_temperature;BME280_humidity;BME280_pressure;Samples;Min_cycle;Max_cycle;Signal;HPM_P1;HPM_P2
2024/03/17 00:01:09;;;;;;;11.88;3.55;;;5.00;99.90;;;;;;4955107;29;20045;-93
2024/03/17 00:03:36;;;;;;;12.88;3.78;;;4.90;99.90;;;;;;4958963;29;20039;-92
2024/03/17 00:06:06;;;;;;;14.77;3.55;;;4.90;99.90;;;;;;4959072;29;20380;-93
2024/03/17 00:08:35;;;;;;;9.98;3.03;;;5.00;99.90;;;;;;4946718;29;20059;-92
2024/03/17 00:11:08;;;;;;;12.75;3.78;;;4.80;99.90;;;;;;4960173;28;20396;-92
2024/03/17 00:13:35;;;;;;;11.57;3.30;;;6.00;99.90;;;;;;4958343;29;20042;-92
2024/03/17 00:16:02;;;;;;;11.55;3.08;;;5.50;99.90;;;;;;4958409;29;20423;-92
2024/03/17 00:18:31;;;;;;;12.43;3.45;;;4.80;99.90;;;;;;4965730;29;20040;-92
2024/03/17 00:21:02;;;;;;;14.18;3.53;;;4.00;99.90;;;;;;4970319;29;20032;-92
2024/03/17 00:23:32;;;;;;;9.82;3.78;;;4.70;99.90;;;;;;4958150;29;20693;-93
2024/03/17 00:26:02;;;;;;;12.57;3.30;;;4.80;99.90;;;;;;4958095;29;20401;-93
2024/03/17 00:28:39;;;;;;;8.77;3.70;;;4.80;99.90;;;;;;4955163;29;20043;-93
2024/03/17 00:31:09;;;;;;;9.30;3.20;;;5.10;99.90;;;;;;4957402;29;20135;-93
2024/03/17 00:33:40;;;;;;;11.43;3.80;;;5.20;99.90;;;;;;4971896;29;20105;-92
2024/03/17 00:36:07;;;;;;;10.68;3.58;;;4.70;99.90;;;;;;4973142;29;20055;-92
2024/03/17 00:38:36;;;;;;;7.50;2.90;;;4.60;99.90;;;;;;4958459;29;21100;-92
2024/03/17 00:41:04;;;;;;;7.95;3.10;;;4.60;99.90;;;;;;4973435;29;20102;-93
2024/03/17 00:43:34;;;;;;;11.77;3.78;;;4.50;99.90;;;;;;4958554;29;20035;-93
2024/03/17 00:46:01;;;;;;;8.02;3.33;;;4.50;99.90;;;;;;4956434;29;20063;-92
2024/03/17 00:48:31;;;;;;;10.73;3.80;;;5.50;99.90;;;;;;4957067;29;20042;-92
2024/03/17 00:51:08;;;;;;;12.23;3.55;;;5.40;99.90;;;;;;4972905;29;20054;-93
2024/03/17 00:53:35;;;;;;;10.65;3.85;;;5.50;99.90;;;;;;4953940;29;20054;-93
2024/03/17 00:56:02;;;;;;;12.50;3.60;;;4.30;99.90;;;;;;4957243;29;20130;-93
2024/03/17 00:58:31;;;;;;;5.55;2.97;;;4.30;99.90;;;;;;4973453;29;20043;-93
2024/03/17 01:00:58;;;;;;;9.55;3.25;;;3.50;99.90;;;;;;4955877;29;20043;-93
2024/03/17 01:03:26;;;;;;;6.10;3.03;;;4.20;99.90;;;;;;4964591;29;20409;-93
2024/03/17 01:05:54;;;;;;;10.93;3.60;;;4.10;99.90;;;;;;4954703;29;20532;-92
2024/03/17 01:08:21;;;;;;;7.78;3.17;;;4.00;99.90;;;;;;4960266;28;20089;-92
2024/03/17 01:10:51;;;;;;;9.43;3.53;;;4.00;99.90;;;;;;4973322;28;20134;-93
2024/03/17 01:13:20;;;;;;;8.30;3.35;;;4.00;99.90;;;;;;4957365;29;20050;-93
2024/03/17 01:15:52;;;;;;;10.88;3.40;;;4.00;99.90;;;;;;4969795;29;20050;-93
2024/03/17 01:18:19;;;;;;;9.45;3.65;;;3.90;99.90;;;;;;4969411;29;20182;-92
2024/03/17 01:20:46;;;;;;;10.50;3.78;;;4.60;99.90;;;;;;4955542;29;20464;-93
2024/03/17 01:23:13;;;;;;;7.88;3.22;;;3.40;99.90;;;;;;4957029;29;20047;-92
2024/03/17 01:25:40;;;;;;;15.23;3.60;;;4.60;99.90;;;;;;4957411;29;20062;-93
2024/03/17 01:28:07;;;;;;;9.75;3.65;;;3.80;99.90;;;;;;4958535;29;20088;-92
2024/03/17 01:30:34;;;;;;;13.32;3.60;;;4.70;99.90;;;;;;4956263;29;20115;-93
2024/03/17 01:33:10;;;;;;;6.72;3.22;;;4.10;99.90;;;;;;4950598;29;20126;-92
2024/03/17 01:35:37;;;;;;;14.80;3.35;;;3.70;99.90;;;;;;4957314;29;20070;-93
2024/03/17 01:38:04;;;;;;;9.93;3.53;;;2.90;99.90;;;;;;4972981;29;20066;-93
2024/03/17 01:40:31;;;;;;;16.42;4.22;;;3.70;99.90;;;;;;4972817;29;20110;-93
2024/03/17 01:43:09;;;;;;;10.13;3.38;;;4.10;99.90;;;;;;4957321;29;20134;-93
2024/03/17 01:45:36;;;;;;;10.07;3.20;;;3.60;99.90;;;;;;4987551;29;20038;-93
2024/03/17 01:48:17;;;;;;;9.35;3.45;;;3.50;99.90;;;;;;4956532;29;20098;-92
2024/03/17 01:50:44;;;;;;;10.85;4.30;;;3.50;99.90;;;;;;4954870;29;20465;-92
2024/03/17 01:53:13;;;;;;;7.28;3.33;;;4.50;99.90;;;;;;4956683;29;20382;-93
2024/03/17 01:55:43;;;;;;;9.10;3.40;;;3.40;99.90;;;;;;4945921;29;20928;-92
2024/03/17 01:58:13;;;;;;;8.30;3.30;;;3.30;99.90;;;;;;4955438;29;20074;-93
2024/03/17 02:00:40;;;;;;;8.90;3.70;;;3.60;99.90;;;;;;4956682;29;20488;-91
2024/03/17 02:03:10;;;;;;;11.43;4.18;;;3.50;99.90;;;;;;4965303;29;20079;-92
2024/03/17 02:05:40;;;;;;;9.55;3.47;;;4.40;99.90;;;;;;4972432;29;20044;-92
2024/03/17 02:08:07;;;;;;;11.02;3.63;;;3.20;99.90;;;;;;4958591;28;20416;-92
2024/03/17 02:10:34;;;;;;;11.20;3.67;;;4.30;99.90;;;;;;4965743;29;20098;-92
2024/03/17 02:13:05;;;;;;;11.13;3.70;;;3.70;99.90;;;;;;4956130;29;20075;-92
2024/03/17 02:15:33;;;;;;;11.70;3.80;;;3.10;99.90;;;;;;4961124;29;20144;-92
2024/03/17 02:17:59;;;;;;;9.25;3.53;;;3.10;99.90;;;;;;4955598;29;20122;-92
2024/03/17 02:23:12;;;;;;;9.37;3.83;;;3.30;99.90;;;;;;4963742;29;20067;-92
2024/03/17 02:25:39;;;;;;;15.95;3.75;;;3.10;99.90;;;;;;4965678;29;20081;-92
2024/03/17 02:28:06;;;;;;;9.10;3.60;;;3.00;99.90;;;;;;4972514;29;20035;-92
2024/03/17 02:30:33;;;;;;;10.80;3.85;;;;;;;;;;4956225;29;20047;-93
2024/03/17 02:33:03;;;;;;;12.27;3.50;;;3.00;99.90;;;;;;4963188;29;20051;-92
2024/03/17 02:35:33;;;;;;;10.70;3.75;;;3.90;99.90;;;;;;4954802;29;20398;-92
2024/03/17 02:38:09;;;;;;;10.80;3.58;;;2.90;99.90;;;;;;4953745;29;20134;-92
2024/03/17 02:40:36;;;;;;;9.90;3.33;;;2.90;99.90;;;;;;4955858;29;20480;-92
2024/03/17 02:43:06;;;;;;;14.93;2.88;;;3.60;99.90;;;;;;4954565;29;20056;-92
2024/03/17 02:45:33;;;;;;;20.90;4.25;;;2.00;99.90;;;;;;4976078;29;20047;-93
2024/03/17 02:47:59;;;;;;;11.52;3.58;;;2.90;99.90;;;;;;4959996;29;20390;-93
2024/03/17 02:50:27;;;;;;;11.90;3.85;;;3.70;99.90;;;;;;4960023;29;20518;-93
2024/03/17 02:52:54;;;;;;;11.77;3.10;;;3.60;99.90;;;;;;4975708;29;20077;-92
2024/03/17 02:55:24;;;;;;;10.55;3.22;;;2.90;99.90;;;;;;4975439;29;20047;-92
2024/03/17 02:57:51;;;;;;;11.32;3.58;;;2.80;99.90;;;;;;4959831;29;20118;-93
2024/03/17 03:00:19;;;;;;;13.40;3.10;;;2.90;99.90;;;;;;4965356;29;20449;-93
2024/03/17 03:02:46;;;;;;;10.35;3.03;;;2.90;99.90;;;;;;4960152;29;20046;-92
2024/03/17 03:05:13;;;;;;;11.93;3.08;;;3.60;99.90;;;;;;4977747;28;20035;-92
2024/03/17 03:07:40;;;;;;;15.25;3.78;;;2.90;99.90;;;;;;4959596;29;20088;-93
2024/03/17 03:10:07;;;;;;;11.63;3.50;;;3.30;99.90;;;;;;4962787;29;20039;-92
2024/03/17 03:12:34;;;;;;;11.65;3.88;;;2.80;99.90;;;;;;4957144;29;20043;-92
2024/03/17 03:15:04;;;;;;;13.90;3.80;;;2.70;99.90;;;;;;4975574;29;20065;-93
2024/03/17 03:17:31;;;;;;;8.20;3.15;;;2.50;99.90;;;;;;4959491;29;20054;-92
2024/03/17 03:20:05;;;;;;;11.25;3.25;;;3.20;99.90;;;;;;4975468;29;20047;-92
2024/03/17 03:22:32;;;;;;;9.70;3.25;;;2.80;99.90;;;;;;4958927;29;20477;-93
2024/03/17 03:24:59;;;;;;;12.38;3.13;;;3.80;99.90;;;;;;4974981;29;20044;-92
2024/03/17 03:27:26;;;;;;;9.63;3.45;;;2.80;99.90;;;;;;4958655;29;20102;-92
2024/03/17 03:29:53;;;;;;;14.30;3.67;;;1.80;99.90;;;;;;4959286;29;20047;-92
2024/03/17 03:32:20;;;;;;;12.75;3.78;;;1.70;99.90;;;;;;4969039;29;20074;-92
2024/03/17 03:34:46;;;;;;;12.52;4.03;;;3.90;99.90;;;;;;4974490;29;20520;-92
2024/03/17 03:37:13;;;;;;;14.20;4.30;;;3.80;99.90;;;;;;4959179;29;20061;-91
2024/03/17 03:39:40;;;;;;;9.82;3.88;;;3.90;99.90;;;;;;4968050;29;20126;-92
2024/03/17 03:42:09;;;;;;;16.80;4.13;;;2.60;99.90;;;;;;4974437;29;20035;-92
2024/03/17 03:44:36;;;;;;;13.88;4.40;;;2.70;99.90;;;;;;4948173;29;20042;-92
2024/03/17 03:47:03;;;;;;;13.57;4.07;;;2.60;99.90;;;;;;4972392;29;20122;-92
2024/03/17 03:49:41;;;;;;;13.65;4.43;;;2.70;99.90;;;;;;4936794;29;20050;-92
2024/03/17 03:52:14;;;;;;;11.82;4.20;;;2.70;99.90;;;;;;4958908;29;20057;-92
2024/03/17 03:54:41;;;;;;;14.30;5.28;;;3.50;99.90;;;;;;4970756;29;20051;-92
2024/03/17 03:57:12;;;;;;;9.10;4.13;;;2.60;99.90;;;;;;4974877;28;20115;-92
2024/03/17 03:59:39;;;;;;;16.40;4.38;;;2.60;99.90;;;;;;4961989;29;20115;-92
2024/03/17 04:02:11;;;;;;;11.55;4.18;;;3.50;99.90;;;;;;4958433;29;20126;-92
2024/03/17 04:04:40;;;;;;;11.18;4.28;;;2.80;99.90;;;;;;4958196;29;20047;-92
2024/03/17 04:07:08;;;;;;;12.25;4.45;;;;;;;;;;4950555;29;20595;-92
2024/03/17 04:09:43;;;;;;;16.35;4.25;;;2.70;99.90;;;;;;4988928;29;20451;-91
2024/03/17 04:12:12;;;;;;;10.07;3.83;;;3.90;99.90;;;;;;4959457;29;20115;-92
2024/03/17 04:14:42;;;;;;;9.07;4.32;;;3.80;99.90;;;;;;4961557;29;20039;-92
2024/03/17 04:17:09;;;;;;;14.00;4.50;;;3.60;99.90;;;;;;4970837;29;20054;-93
2024/03/17 04:19:40;;;;;;;9.57;4.28;;;2.80;99.90;;;;;;4971043;29;20051;-92
2024/03/17 04:22:07;;;;;;;15.25;4.05;;;2.90;99.90;;;;;;4952415;29;20404;-92
2024/03/17 04:24:34;;;;;;;13.48;4.45;;;2.90;99.90;;;;;;4964843;29;20036;-93
2024/03/17 04:27:06;;;;;;;17.13;4.80;;;3.00;99.90;;;;;;4962821;29;20054;-91
2024/03/17 04:29:39;;;;;;;9.82;4.72;;;4.10;99.90;;;;;;4962077;29;20044;-93
2024/03/17 04:32:11;;;;;;;13.45;4.40;;;3.90;99.90;;;;;;4972129;29;20042;-92
2024/03/17 04:34:38;;;;;;;13.45;4.50;;;3.90;99.90;;;;;;4955566;29;20579;-92
2024/03/17 04:37:08;;;;;;;11.88;4.50;;;3.20;99.90;;;;;;4945765;29;20130;-93
2024/03/17 04:39:37;;;;;;;13.25;4.75;;;3.50;99.90;;;;;;4958074;29;20042;-92
2024/03/17 04:42:07;;;;;;;10.75;4.50;;;3.10;99.90;;;;;;4956474;29;20046;-91
2024/03/17 04:44:40;;;;;;;14.45;5.22;;;3.10;99.90;;;;;;4957739;29;20122;-92
2024/03/17 04:47:10;;;;;;;11.77;4.78;;;2.40;99.90;;;;;;4958116;29;20039;-93
2024/03/17 04:49:41;;;;;;;10.27;4.90;;;3.60;99.90;;;;;;4955939;29;20126;-92
2024/03/17 04:52:10;;;;;;;15.25;5.55;;;3.20;99.90;;;;;;4957836;29;20047;-92
2024/03/17 04:54:42;;;;;;;12.73;4.80;;;3.50;99.90;;;;;;4956489;29;20539;-93
2024/03/17 04:57:17;;;;;;;18.02;4.95;;;3.50;99.90;;;;;;4967071;28;20120;-93
2024/03/17 04:59:44;;;;;;;16.67;5.18;;;3.40;99.90;;;;;;4955668;28;20573;-93
2024/03/17 05:02:11;;;;;;;10.32;4.43;;;3.40;99.90;;;;;;4953310;29;20122;-92
2024/03/17 05:04:42;;;;;;;11.75;4.72;;;4.40;99.90;;;;;;4957089;29;20102;-92
2024/03/17 05:07:09;;;;;;;13.93;4.88;;;3.40;99.90;;;;;;4953428;29;20078;-92
2024/03/17 05:09:45;;;;;;;9.75;4.25;;;3.40;99.90;;;;;;4952656;29;20560;-92
2024/03/17 05:12:12;;;;;;;13.73;4.97;;;3.40;99.90;;;;;;4938446;29;20050;-93
2024/03/17 05:14:39;;;;;;;10.50;4.80;;;3.50;99.90;;;;;;4938426;29;20151;-92
2024/03/17 05:17:06;;;;;;;12.30;4.75;;;;;;;;;;4938296;29;20118;-93
2024/03/17 05:19:40;;;;;;;11.60;4.60;;;3.50;99.90;;;;;;4937451;29;20131;-94
2024/03/17 05:22:10;;;;;;;13.38;4.40;;;3.50;99.90;;;;;;4937694;29;20044;-93
2024/03/17 05:24:45;;;;;;;11.93;4.85;;;3.10;99.90;;;;;;4950934;29;20375;-93
2024/03/17 05:27:13;;;;;;;10.20;4.50;;;4.60;99.90;;;;;;4951587;29;20040;-93
2024/03/17 05:29:40;;;;;;;20.30;4.50;;;3.50;99.90;;;;;;4929645;29;20139;-93
2024/03/17 05:32:09;;;;;;;10.93;4.75;;;3.50;99.90;;;;;;4949796;29;20461;-94
2024/03/17 05:34:40;;;;;;;11.55;4.18;;;4.70;99.90;;;;;;4935061;29;20155;-94
2024/03/17 05:37:10;;;;;;;7.90;4.05;;;3.50;99.90;;;;;;4933313;29;20146;-93
2024/03/17 05:39:39;;;;;;;15.68;4.88;;;4.70;99.90;;;;;;4929860;29;20056;-93
2024/03/17 05:42:08;;;;;;;10.90;4.78;;;3.60;99.90;;;;;;4923306;29;20700;-93
2024/03/17 05:44:50;;;;;;;13.45;4.75;;;4.40;99.90;;;;;;4933346;29;20040;-93
2024/03/17 05:47:20;;;;;;;14.63;4.70;;;4.80;99.90;;;;;;4932547;29;20055;-93
2024/03/17 05:49:47;;;;;;;13.38;4.78;;;3.40;99.90;;;;;;4921266;29;20055;-94
2024/03/17 05:52:23;;;;;;;11.43;4.47;;;4.60;99.90;;;;;;4942284;29;20051;-93
2024/03/17 05:54:50;;;;;;;9.60;4.30;;;3.80;99.90;;;;;;4953089;29;20126;-94
2024/03/17 05:57:17;;;;;;;9.68;4.65;;;4.70;99.90;;;;;;4931531;29;20127;-93
2024/03/17 05:59:54;;;;;;;;;;;;;;;;;;;;;
2024/03/17 06:02:27;;;;;;;11.30;4.32;;;4.40;99.90;;;;;;4952152;29;20048;-93
2024/03/17 06:04:57;;;;;;;16.42;4.40;;;4.50;99.90;;;;;;4935265;29;20409;-92
2024/03/17 06:07:24;;;;;;;12.45;4.20;;;4.80;99.90;;;;;;4942218;29;20536;-93
2024/03/17 06:10:04;;;;;;;8.95;4.68;;;4.30;99.90;;;;;;4966058;29;20139;-93
2024/03/17 06:12:37;;;;;;;15.93;4.47;;;3.00;99.90;;;;;;4965177;29;20044;-94
2024/03/17 06:15:07;;;;;;;10.48;4.07;;;3.70;99.90;;;;;;4940075;29;20044;-93
2024/03/17 06:17:36;;;;;;;14.00;5.13;;;3.70;99.90;;;;;;4962840;29;20043;-93
2024/03/17 06:20:16;;;;;;;8.07;3.72;;;3.80;99.90;;;;;;4967581;29;20046;-93
2024/03/17 06:22:43;;;;;;;9.57;3.97;;;3.90;99.90;;;;;;4958053;29;20082;-94
2024/03/17 06:25:10;;;;;;;12.55;4.18;;;3.70;99.90;;;;;;4960304;29;20512;-93
2024/03/17 06:27:40;;;;;;;9.18;3.60;;;3.90;99.90;;;;;;4959578;29;20035;-93
2024/03/17 06:30:16;;;;;;;12.07;3.80;;;4.90;99.90;;;;;;4959948;29;20070;-93
2024/03/17 06:32:46;;;;;;;11.45;4.00;;;4.00;99.90;;;;;;4974434;29;20043;-94
2024/03/17 06:35:15;;;;;;;7.55;3.50;;;5.20;99.90;;;;;;4958496;29;20054;-93
2024/03/17 06:37:45;;;;;;;12.25;4.00;;;4.10;99.90;;;;;;4950965;29;20051;-93
2024/03/17 06:40:15;;;;;;;8.85;3.33;;;4.40;99.90;;;;;;4956478;29;20035;-93
2024/03/17 06:42:45;;;;;;;8.88;3.35;;;5.40;99.90;;;;;;4950425;29;20036;-93
2024/03/17 06:45:17;;;;;;;10.38;3.92;;;4.20;99.90;;;;;;4974714;29;20047;-93
2024/03/17 06:47:48;;;;;;;10.93;3.88;;;4.30;99.90;;;;;;4958476;29;20118;-94
2024/03/17 06:50:15;;;;;;;9.88;3.83;;;4.30;99.90;;;;;;4953054;29;20040;-95
2024/03/17 06:52:42;;;;;;;11.40;3.60;;;4.40;99.90;;;;;;4957915;29;20105;-93
2024/03/17 06:55:14;;;;;;;9.45;3.70;;;4.40;99.90;;;;;;4965343;29;20445;-93
2024/03/17 06:57:47;;;;;;;11.32;4.03;;;4.40;99.90;;;;;;4972881;29;20040;-93
2024/03/17 07:00:16;;;;;;;10.88;3.75;;;5.60;99.90;;;;;;4954266;29;20123;-94
2024/03/17 07:02:49;;;;;;;8.30;3.80;;;4.50;99.90;;;;;;4948495;29;20040;-94
2024/03/17 07:05:16;;;;;;;14.65;4.22;;;5.40;99.90;;;;;;4959471;29;20126;-93
2024/03/17 07:07:43;;;;;;;11.85;3.83;;;4.70;99.90;;;;;;4973644;29;20051;-93
2024/03/17 07:10:12;;;;;;;11.23;4.15;;;6.10;99.90;;;;;;4954798;29;20043;-93
2024/03/17 07:12:39;;;;;;;15.90;3.75;;;5.70;99.90;;;;;;4959188;29;20043;-93
2024/03/17 07:15:14;;;;;;;11.82;3.67;;;4.90;99.90;;;;;;4951698;29;20047;-93
2024/03/17 07:17:44;;;;;;;11.85;3.78;;;5.30;99.90;;;;;;4951490;29;20059;-93
2024/03/17 07:20:12;;;;;;;10.85;3.70;;;5.40;99.90;;;;;;4972829;29;20070;-93
2024/03/17 07:22:39;;;;;;;8.73;3.85;;;5.50;99.90;;;;;;4953672;29;20044;-94
2024/03/17 07:25:12;;;;;;;18.45;4.18;;;5.30;99.90;;;;;;4943967;29;20041;-92
2024/03/17 07:27:44;;;;;;;11.13;3.70;;;5.80;99.90;;;;;;4956811;29;20502;-94
2024/03/17 07:30:14;;;;;;;10.15;3.50;;;5.70;99.90;;;;;;4962526;29;20047;-92
2024/03/17 07:32:43;;;;;;;10.23;3.70;;;5.50;99.90;;;;;;4971411;29;20125;-93
2024/03/17 07:35:10;;;;;;;14.30;4.18;;;5.60;99.90;;;;;;4937637;29;20522;-93
2024/03/17 07:37:40;;;;;;;10.93;3.63;;;5.60;99.90;;;;;;4951883;29;20138;-92
2024/03/17 07:40:10;;;;;;;11.60;3.75;;;5.90;99.90;;;;;;4952526;29;20043;-93
2024/03/17 07:42:40;;;;;;;16.73;3.47;;;6.00;99.90;;;;;;4945715;29;20096;-92
2024/03/17 07:45:11;;;;;;;12.02;3.67;;;5.80;99.90;;;;;;4951179;29;20082;-93
2024/03/17 07:47:50;;;;;;;12.52;3.50;;;6.30;99.90;;;;;;4952066;29;20036;-94
2024/03/17 07:50:17;;;;;;;12.55;3.70;;;6.30;99.90;;;;;;4947064;29;20043;-93
2024/03/17 07:52:45;;;;;;;10.18;3.63;;;6.40;99.90;;;;;;4972503;29;20062;-93
2024/03/17 07:55:12;;;;;;;9.80;2.97;;;6.50;99.90;;;;;;4958724;29;20122;-92
2024/03/17 07:57:40;;;;;;;11.32;3.10;;;6.70;99.90;;;;;;4946305;29;20093;-91
2024/03/17 08:00:15;;;;;;;12.80;3.38;;;7.30;99.90;;;;;;4955322;29;20489;-92
2024/03/17 08:02:45;;;;;;;9.15;2.92;;;6.70;99.90;;;;;;4956296;29;20043;-92
2024/03/17 08:05:13;;;;;;;11.95;3.30;;;7.30;99.90;;;;;;4961664;29;20280;-92
2024/03/17 08:07:42;;;;;;;13.95;3.25;;;7.10;99.90;;;;;;4949323;29;20476;-92
2024/03/17 08:10:11;;;;;;;14.57;2.85;;;6.90;99.90;;;;;;4931543;29;20119;-93
2024/03/17 08:12:56;;;;;;;;;;;;;;;;;;;;;
2024/03/17 08:15:58;;;;;;;13.88;2.90;;;7.20;99.90;;;;;;4961819;29;20083;-93
2024/03/17 08:19:00;;;;;;;11.15;3.13;;;7.90;99.90;;;;;;4950510;29;20044;-96
2024/03/17 08:21:29;;;;;;;12.70;2.72;;;7.00;99.90;;;;;;4954896;29;20047;-94
2024/03/17 08:23:56;;;;;;;10.43;2.40;;;6.40;99.90;;;;;;4939398;29;20047;-92
2024/03/17 08:26:26;;;;;;;10.32;2.80;;;7.20;99.90;;;;;;4940496;29;20608;-87
2024/03/17 08:28:52;;;;;;;10.07;2.33;;;8.10;99.90;;;;;;4938568;29;20046;-88
2024/03/17 08:31:19;;;;;;;7.20;2.20;;;8.40;99.90;;;;;;4938969;29;20102;-87
2024/03/17 08:33:47;;;;;;;12.88;2.60;;;8.30;99.90;;;;;;4938330;29;20220;-87
2024/03/17 08:36:17;;;;;;;10.90;2.28;;;8.30;99.90;;;;;;4938286;29;20043;-86
2024/03/17 08:38:44;;;;;;;9.68;2.30;;;7.50;99.90;;;;;;4937932;29;20602;-86
2024/03/17 08:41:13;;;;;;;10.40;2.50;;;8.60;99.90;;;;;;4937102;29;20183;-87
2024/03/17 08:43:41;;;;;;;14.05;2.53;;;8.60;99.90;;;;;;4937466;29;20051;-86
2024/03/17 08:46:09;;;;;;;11.68;2.47;;;7.80;99.90;;;;;;4940412;29;20036;-86
2024/03/17 08:48:37;;;;;;;12.82;2.78;;;8.70;99.90;;;;;;4939349;29;20051;-86
2024/03/17 08:51:05;;;;;;;10.35;2.28;;;8.40;99.90;;;;;;4953285;29;20036;-86
2024/03/17 08:53:37;;;;;;;10.48;2.40;;;7.90;99.90;;;;;;4952925;29;20139;-86
2024/03/17 08:56:06;;;;;;;9.15;2.22;;;8.00;99.90;;;;;;4952878;29;20497;-86
2024/03/17 08:58:32;;;;;;;11.68;2.47;;;8.10;99.90;;;;;;4937896;29;20089;-86
2024/03/17 09:01:04;;;;;;;8.85;2.53;;;8.80;99.90;;;;;;4948688;29;20047;-86
2024/03/17 09:03:30;;;;;;;10.85;1.92;;;8.80;99.90;;;;;;4937570;29;20050;-86
2024/03/17 09:05:58;;;;;;;7.18;2.05;;;9.30;99.90;;;;;;4952142;29;20397;-87
2024/03/17 09:08:26;;;;;;;10.43;1.88;;;8.30;99.90;;;;;;4937410;29;20138;-86
2024/03/17 09:10:54;;;;;;;8.68;2.15;;;8.70;99.90;;;;;;4937678;29;20051;-87
2024/03/17 09:13:26;;;;;;;10.05;2.13;;;9.40;99.90;;;;;;4949233;29;20044;-87
2024/03/17 09:15:59;;;;;;;11.88;2.33;;;8.80;99.90;;;;;;4947500;29;20103;-86
2024/03/17 09:18:27;;;;;;;6.82;1.83;;;9.00;99.90;;;;;;4936936;29;20095;-87
2024/03/17 09:21:05;;;;;;;5.88;1.70;;;8.60;99.90;;;;;;4932132;29;20039;-87
2024/03/17 09:23:41;;;;;;;13.40;3.67;;;8.60;99.90;;;;;;4943775;29;20035;-87
2024/03/17 09:26:09;;;;;;;8.15;2.20;;;8.60;99.90;;;;;;4936099;29;20082;-86
2024/03/17 09:28:37;;;;;;;11.65;2.22;;;8.70;99.90;;;;;;4936650;29;20035;-88
2024/03/17 09:31:06;;;;;;;6.18;2.30;;;9.80;99.90;;;;;;4937314;29;20051;-85
2024/03/17 09:33:38;;;;;;;13.20;2.72;;;9.50;99.90;;;;;;4945567;29;20048;-86
2024/03/17 09:36:07;;;;;;;5.78;2.15;;;8.70;99.90;;;;;;4934685;29;20078;-86
2024/03/17 09:38:38;;;;;;;12.98;2.45;;;8.60;99.90;;;;;;4940022;29;20409;-86
2024/03/17 09:41:07;;;;;;;8.52;1.92;;;9.10;99.90;;;;;;4928226;29;20048;-86
2024/03/17 09:43:35;;;;;;;5.18;2.10;;;9.10;99.90;;;;;;4944323;29;20047;-85
2024/03/17 09:46:03;;;;;;;7.22;2.25;;;8.70;99.90;;;;;;4939470;29;20099;-86
2024/03/17 09:48:29;;;;;;;8.90;2.40;;;8.70;99.90;;;;;;4931791;29;20497;-86
2024/03/17 09:51:01;;;;;;;6.40;2.35;;;8.70;99.90;;;;;;4930481;29;20054;-87
2024/03/17 09:53:32;;;;;;;11.05;2.90;;;8.80;99.90;;;;;;4943933;29;20058;-86
2024/03/17 09:56:12;;;;;;;11.93;2.72;;;8.80;99.90;;;;;;4950086;29;20055;-86
2024/03/17 09:58:39;;;;;;;6.60;2.30;;;8.80;99.90;;;;;;4950675;29;20043;-86
2024/03/17 10:01:06;;;;;;;9.13;2.65;;;8.80;99.90;;;;;;4950076;29;20047;-86
2024/03/17 10:03:52;;;;;;;9.20;2.67;;;9.60;99.90;;;;;;4944609;29;20040;-85
2024/03/17 10:06:19;;;;;;;;;;;8.90;99.90;;;;;;4928931;29;20103;-85
2024/03/17 10:08:51;;;;;;;9.82;2.58;;;8.90;99.90;;;;;;4943642;29;19927;-86
2024/03/17 10:11:23;;;;;;;6.82;2.28;;;8.90;99.90;;;;;;4935723;29;20044;-86
2024/03/17 10:14:07;;;;;;;11.05;2.92;;;8.90;99.90;;;;;;4920583;29;20052;-85
2024/03/17 10:16:37;;;;;;;9.32;2.63;;;9.00;99.90;;;;;;4931692;29;20044;-86
2024/03/17 10:19:13;;;;;;;9.73;2.40;;;9.10;99.90;;;;;;4921972;29;20047;-86
2024/03/17 10:21:47;;;;;;;7.50;2.70;;;9.20;99.90;;;;;;4935736;29;20127;-87
2024/03/17 10:24:24;;;;;;;11.52;3.47;;;9.20;99.90;;;;;;4929713;29;20040;-87
2024/03/17 10:26:53;;;;;;;15.38;3.10;;;9.20;99.90;;;;;;4944966;29;20031;-87
2024/03/17 10:29:27;;;;;;;6.57;2.47;;;10.00;99.90;;;;;;4929148;29;20054;-88
2024/03/17 10:32:12;;;;;;;11.80;2.83;;;9.30;99.90;;;;;;4934786;29;20125;-86
2024/03/17 10:34:39;;;;;;;8.15;3.30;;;9.40;99.90;;;;;;4929638;29;20044;-86
2024/03/17 10:37:13;;;;;;;10.98;3.05;;;9.40;99.90;;;;;;4937006;29;20090;-87
2024/03/17 10:39:42;;;;;;;12.15;3.60;;;9.50;99.90;;;;;;4952042;29;20035;-86
2024/03/17 10:42:10;;;;;;;9.23;2.92;;;9.50;99.90;;;;;;4936504;29;20123;-86
2024/03/17 10:44:38;;;;;;;9.02;3.45;;;9.80;99.90;;;;;;4934726;29;20103;-86
2024/03/17 10:47:09;;;;;;;10.48;3.80;;;9.80;99.90;;;;;;4930387;29;20067;-87
2024/03/17 10:49:38;;;;;;;9.90;3.25;;;9.90;99.90;;;;;;4930523;29;20044;-86
2024/03/17 10:52:08;;;;;;;9.35;4.30;;;10.00;99.90;;;;;;4929923;29;20074;-87
2024/03/17 10:54:35;;;;;;;11.40;3.88;;;10.20;99.90;;;;;;4928627;29;20118;-87
2024/03/17 10:57:22;;;;;;;10.07;3.95;;;10.20;99.90;;;;;;4952220;29;20051;-88
2024/03/17 10:59:50;;;;;;;12.70;4.30;;;10.30;99.90;;;;;;4939143;29;20039;-86
2024/03/17 11:02:33;;;;;;;11.60;4.30;;;10.30;99.90;;;;;;4923671;29;20059;-85
2024/03/17 11:05:06;;;;;;;12.70;4.70;;;10.40;99.90;;;;;;4933629;29;20036;-86
2024/03/17 11:07:37;;;;;;;8.27;4.28;;;10.40;99.90;;;;;;4939566;29;20052;-85
2024/03/17 11:10:05;;;;;;;13.57;4.45;;;10.30;99.90;;;;;;4921676;29;20414;-87
2024/03/17 11:12:43;;;;;;;10.57;4.80;;;10.30;99.90;;;;;;4935990;29;20043;-86
2024/03/17 11:15:19;;;;;;;12.52;4.50;;;10.60;99.90;;;;;;4938787;29;20032;-86
2024/03/17 11:17:46;;;;;;;9.57;4.10;;;9.70;99.90;;;;;;4925106;29;20048;-83
2024/03/17 11:20:31;;;;;;;10.25;4.40;;;10.70;99.90;;;;;;4931979;29;20044;-84
2024/03/17 11:22:59;;;;;;;11.18;4.47;;;10.80;99.90;;;;;;4944942;29;20596;-83
2024/03/17 11:25:26;;;;;;;13.60;4.63;;;10.80;99.90;;;;;;4938973;29;20044;-83
2024/03/17 11:27:53;;;;;;;11.52;4.95;;;10.80;99.90;;;;;;4944837;29;20040;-83
2024/03/17 11:30:51;;;;;;;11.30;5.00;;;10.80;99.90;;;;;;4949395;29;20181;-84
2024/03/17 11:33:30;;;;;;;12.20;4.20;;;10.80;99.90;;;;;;4931256;29;20044;-83
2024/03/17 11:36:28;;;;;;;13.45;4.78;;;10.90;99.90;;;;;;4947168;29;20118;-84
2024/03/17 11:38:54;;;;;;;11.75;5.10;;;10.90;99.90;;;;;;4935070;29;20044;-84
2024/03/17 11:41:35;;;;;;;14.27;5.95;;;11.10;99.90;;;;;;4935237;29;20107;-84
2024/03/17 11:44:23;;;;;;;11.57;5.50;;;11.70;99.90;;;;;;4928998;29;20036;-83
2024/03/17 11:47:03;;;;;;;14.27;5.68;;;11.20;99.90;;;;;;4921133;29;20044;-83
2024/03/17 11:49:38;;;;;;;14.07;5.47;;;11.20;99.90;;;;;;4920286;29;20577;-83
2024/03/17 11:52:15;;;;;;;11.32;6.68;;;11.30;99.90;;;;;;4951638;29;20047;-83
2024/03/17 11:54:44;;;;;;;12.48;5.70;;;11.40;99.90;;;;;;4935249;29;20054;-83
2024/03/17 11:57:12;;;;;;;11.77;5.93;;;11.40;99.90;;;;;;4938318;29;20472;-84
2024/03/17 11:59:44;;;;;;;14.80;5.88;;;11.60;99.90;;;;;;4933479;29;20781;-84
2024/03/17 12:02:18;;;;;;;14.85;6.22;;;11.60;99.90;;;;;;4931278;29;20040;-84
2024/03/17 12:04:46;;;;;;;16.05;6.40;;;11.60;99.90;;;;;;4925874;29;20408;-84
2024/03/17 12:07:14;;;;;;;11.30;5.80;;;11.60;99.90;;;;;;4938164;29;20031;-84
2024/03/17 12:09:42;;;;;;;13.23;5.55;;;11.60;99.90;;;;;;4957116;29;20043;-84
2024/03/17 12:12:13;;;;;;;15.38;5.60;;;11.50;99.90;;;;;;4972771;29;20062;-84
2024/03/17 12:14:40;;;;;;;14.38;6.32;;;11.50;99.90;;;;;;4954940;28;20220;-83
2024/03/17 12:17:11;;;;;;;11.05;6.18;;;11.40;99.90;;;;;;4956279;29;20608;-83
2024/03/17 12:19:38;;;;;;;13.32;6.65;;;11.60;99.90;;;;;;4948638;29;20098;-84
2024/03/17 12:22:05;;;;;;;12.93;6.07;;;11.30;99.90;;;;;;4967933;29;20460;-83
2024/03/17 12:24:34;;;;;;;15.48;6.80;;;11.30;99.90;;;;;;4962716;29;20072;-84
2024/03/17 12:27:04;;;;;;;13.75;6.45;;;11.30;99.90;;;;;;4956675;29;20043;-83
2024/03/17 12:29:41;;;;;;;11.48;5.53;;;11.30;99.90;;;;;;4956907;29;20042;-84
2024/03/17 12:32:18;;;;;;;15.27;6.68;;;11.30;99.90;;;;;;4962737;29;20523;-84
2024/03/17 12:34:46;;;;;;;15.88;7.22;;;11.40;99.90;;;;;;4968744;29;20047;-84
2024/03/17 12:37:21;;;;;;;14.82;6.70;;;11.40;99.90;;;;;;4957912;29;20043;-83
2024/03/17 12:39:50;;;;;;;10.80;6.30;;;11.50;99.90;;;;;;4953751;29;20043;-84
2024/03/17 12:42:26;;;;;;;14.48;5.82;;;11.40;99.90;;;;;;4961539;29;20152;-84
2024/03/17 12:44:54;;;;;;;11.23;6.25;;;11.50;99.90;;;;;;4956319;29;20044;-84
2024/03/17 12:47:26;;;;;;;12.88;6.35;;;11.50;99.90;;;;;;4956264;29;20043;-83
2024/03/17 12:49:53;;;;;;;15.98;6.50;;;11.60;99.90;;;;;;4956353;29;20041;-84
2024/03/17 12:52:20;;;;;;;12.00;6.47;;;11.60;99.90;;;;;;4956263;29;20043;-84
2024/03/17 13:01:13;;;;;;;11.32;5.70;;;11.70;99.90;;;;;;4870153;29;20461;-84
2024/03/17 13:03:40;;;;;;;14.90;6.45;;;11.80;99.90;;;;;;4880134;29;20128;-84
2024/03/17 13:06:10;;;;;;;12.52;6.57;;;11.90;99.90;;;;;;4905982;29;20572;-84
2024/03/17 13:08:36;;;;;;;14.50;6.40;;;12.00;99.90;;;;;;4971907;28;20412;-84
2024/03/17 13:11:09;;;;;;;13.57;6.20;;;12.00;99.90;;;;;;4957847;29;20047;-83
2024/03/17 13:13:36;;;;;;;10.73;6.03;;;12.00;99.90;;;;;;4969808;29;20087;-84
2024/03/17 13:16:02;;;;;;;13.93;6.22;;;12.30;99.90;;;;;;4964197;29;20086;-84